Yaupon Beach, North Carolina
Current Conditions -  °F | °C
As of 8:15 AM on Monday 22 Dec 2014 (Local Time) from KSUT Reporting Station
Moderate Fog Moderate Fog  
Wind Chill: 39°   Ceiling: 300
Heat Index: 45°   Visibility: 0.5mi
Dew Point: 45°   Wind: 13mph
Humidity: 99%   Direction: 360°N
Pressure: 30.06"   Gusts: 16mph
Location:  33.9216°N, 78.1244°W
Report Text: KSUT 221315Z AUTO 36011G14KT 1/2SM FG OVC003 07/07 A3006 RMK AO2 T00720070
Loading
Personal Weather Stations






























Interactive Weather Map New forecast layout! Learn more

10-Day Weather Forecast

Advertisements
Track Severe Weather on mobile